Time;durP1;ratioP1;P1;durP2;ratioP2;P2;SDS_P1;SDS_P2;PMS_P1;PMS_P2;Temp;Humidity;BMP_temperature;BMP_pressure;BME280_temperature;BME280_humidity;BME280_pressure;Samples;Min_cycle;Max_cycle;Signal;HPM_P1;HPM_P2
2023/03/20 00:02:05;;;;;;;43.50;30.17;;;11.20;99.90;;;;;;4917062;29;20198;-82
2023/03/20 00:04:32;;;;;;;35.80;26.05;;;11.10;99.90;;;;;;4915477;29;20209;-80
2023/03/20 00:07:02;;;;;;;43.08;28.23;;;11.10;99.90;;;;;;4915039;29;20211;-82
2023/03/20 00:09:30;;;;;;;43.05;29.35;;;11.10;99.90;;;;;;4911964;29;20213;-81
2023/03/20 00:11:57;;;;;;;44.28;29.15;;;11.00;99.90;;;;;;4919023;29;20228;-81
2023/03/20 00:14:25;;;;;;;43.58;27.63;;;11.00;99.90;;;;;;4917489;29;20704;-80
2023/03/20 00:16:52;;;;;;;51.00;31.73;;;11.00;99.90;;;;;;4914987;29;20214;-80
2023/03/20 00:19:25;;;;;;;41.15;27.60;;;11.00;99.90;;;;;;4914924;29;20226;-81
2023/03/20 00:21:53;;;;;;;42.80;27.38;;;10.80;99.90;;;;;;4914979;29;20209;-81
2023/03/20 00:24:21;;;;;;;39.17;27.27;;;11.00;99.90;;;;;;4912229;29;20766;-80
2023/03/20 00:26:49;;;;;;;43.72;26.60;;;10.70;99.90;;;;;;4910655;29;20501;-81
2023/03/20 00:29:27;;;;;;;38.33;27.60;;;10.80;99.90;;;;;;4913225;29;20217;-82
2023/03/20 00:31:54;;;;;;;38.20;28.60;;;10.80;99.90;;;;;;4917170;29;20201;-81
2023/03/20 00:34:25;;;;;;;37.65;27.27;;;10.80;99.90;;;;;;4912722;29;20449;-80
2023/03/20 00:36:53;;;;;;;44.35;27.55;;;10.80;99.90;;;;;;4909787;29;20197;-82
2023/03/20 00:39:22;;;;;;;38.42;26.35;;;10.60;99.90;;;;;;4903870;29;20265;-80
2023/03/20 00:41:59;;;;;;;37.67;27.13;;;10.50;99.90;;;;;;4911393;29;20194;-81
2023/03/20 00:44:43;;;;;;;31.20;24.77;;;10.40;99.90;;;;;;4908864;29;20240;-81
2023/03/20 00:47:17;;;;;;;37.42;23.95;;;10.50;99.90;;;;;;4913858;29;20547;-81
2023/03/20 00:49:46;;;;;;;30.25;23.90;;;10.20;99.90;;;;;;4915097;29;20198;-80
2023/03/20 00:52:18;;;;;;;33.42;22.95;;;10.20;99.90;;;;;;4925542;29;20218;-81
2023/03/20 00:54:46;;;;;;;38.90;23.88;;;10.20;99.90;;;;;;4922038;29;20483;-81
2023/03/20 00:57:24;;;;;;;42.28;25.02;;;10.20;99.90;;;;;;4918941;29;20565;-81
2023/03/20 01:00:05;;;;;;;29.90;22.63;;;10.10;99.90;;;;;;4913490;29;20228;-80
2023/03/20 01:02:32;;;;;;;37.70;27.70;;;10.00;99.90;;;;;;4918854;29;20209;-81
2023/03/20 01:05:00;;;;;;;34.63;25.30;;;10.20;99.90;;;;;;4922518;29;20268;-81
2023/03/20 01:07:27;;;;;;;35.15;25.52;;;10.30;99.90;;;;;;4916599;29;20210;-81
2023/03/20 01:09:54;;;;;;;36.67;25.13;;;10.20;99.90;;;;;;4926245;29;20208;-82
2023/03/20 01:12:22;;;;;;;32.97;23.65;;;10.30;99.90;;;;;;4922709;29;20279;-81
2023/03/20 01:14:56;;;;;;;33.78;22.77;;;10.30;99.90;;;;;;4916956;29;20223;-80
2023/03/20 01:17:25;;;;;;;31.83;23.52;;;10.40;99.90;;;;;;4918918;29;20436;-80
2023/03/20 01:19:52;;;;;;;30.80;22.45;;;10.30;99.90;;;;;;4908847;29;20217;-80
2023/03/20 01:22:19;;;;;;;31.08;22.65;;;10.20;99.90;;;;;;4906028;29;20217;-82
2023/03/20 01:24:46;;;;;;;33.28;22.02;;;10.30;99.90;;;;;;4923834;29;20228;-82
2023/03/20 01:27:18;;;;;;;34.08;25.40;;;10.50;99.90;;;;;;4911633;29;20788;-82
2023/03/20 01:29:45;;;;;;;31.23;24.70;;;10.40;99.90;;;;;;4916377;29;20493;-82
2023/03/20 01:32:16;;;;;;;33.42;24.88;;;10.40;99.90;;;;;;4917572;29;20814;-82
2023/03/20 01:34:43;;;;;;;29.00;22.27;;;10.30;99.90;;;;;;4912654;29;20213;-82
2023/03/20 01:37:16;;;;;;;33.35;22.65;;;10.30;99.90;;;;;;4917985;29;20209;-82
2023/03/20 01:39:44;;;;;;;27.95;21.73;;;10.30;99.90;;;;;;4919976;29;20757;-81
2023/03/20 01:42:14;;;;;;;32.72;23.27;;;10.40;99.90;;;;;;4916326;29;20255;-81
2023/03/20 01:44:42;;;;;;;32.95;22.90;;;10.70;99.90;;;;;;4919059;29;20240;-82
2023/03/20 01:47:17;;;;;;;31.95;22.35;;;10.40;99.90;;;;;;4926423;29;20207;-81
2023/03/20 01:50:21;;;;;;;29.00;22.50;;;10.40;99.90;;;;;;4920863;29;20256;-82
2023/03/20 01:52:51;;;;;;;26.30;21.63;;;10.50;99.90;;;;;;4914560;29;20214;-81
2023/03/20 01:55:19;;;;;;;29.83;22.27;;;10.80;99.90;;;;;;4921731;29;20230;-81
2023/03/20 01:57:46;;;;;;;31.42;22.35;;;10.80;99.90;;;;;;4923877;29;20200;-82
2023/03/20 02:00:16;;;;;;;28.90;23.40;;;10.90;99.90;;;;;;4924931;29;20226;-82
2023/03/20 02:02:47;;;;;;;28.10;22.92;;;10.60;99.90;;;;;;4925085;29;20213;-82
2023/03/20 02:05:17;;;;;;;26.48;20.40;;;10.60;99.90;;;;;;4923750;29;20214;-82
2023/03/20 02:08:01;;;;;;;28.63;22.38;;;10.50;99.90;;;;;;4925212;29;20251;-82
2023/03/20 02:10:30;;;;;;;36.22;22.88;;;10.40;99.90;;;;;;4924445;29;20254;-83
2023/03/20 02:12:58;;;;;;;30.70;23.15;;;10.50;99.90;;;;;;4926681;29;20392;-79
2023/03/20 02:15:28;;;;;;;27.95;23.13;;;10.40;99.90;;;;;;4921610;29;20288;-81
2023/03/20 02:17:55;;;;;;;29.77;23.33;;;10.30;99.90;;;;;;4923568;29;20205;-81
2023/03/20 02:20:57;;;;;;;27.98;23.23;;;10.00;99.90;;;;;;4916504;29;20246;-81
2023/03/20 02:23:47;;;;;;;37.38;26.55;;;10.20;99.90;;;;;;4918551;29;20244;-81
2023/03/20 02:26:35;;;;;;;31.48;24.25;;;10.30;99.90;;;;;;4922559;29;20206;-83
2023/03/20 02:29:17;;;;;;;29.95;25.50;;;10.40;99.90;;;;;;4924725;29;20528;-83
2023/03/20 02:32:14;;;;;;;28.48;23.92;;;10.50;99.90;;;;;;4922184;29;20644;-84
2023/03/20 02:35:03;;;;;;;31.35;25.75;;;10.70;99.90;;;;;;4907297;29;20221;-81
2023/03/20 02:37:35;;;;;;;32.53;25.35;;;10.80;99.90;;;;;;4921066;29;20211;-82
2023/03/20 02:40:42;;;;;;;33.63;26.10;;;10.90;99.90;;;;;;4915243;29;20218;-81
2023/03/20 02:43:14;;;;;;;33.60;26.25;;;10.90;99.90;;;;;;4916858;29;20305;-83
2023/03/20 02:45:50;;;;;;;27.48;24.10;;;10.80;99.90;;;;;;4922351;29;20211;-83
2023/03/20 02:48:45;;;;;;;28.58;24.52;;;10.60;99.90;;;;;;4925122;29;20210;-82
2023/03/20 02:51:19;;;;;;;35.45;26.13;;;10.70;99.90;;;;;;4909331;29;20222;-82
2023/03/20 02:53:56;;;;;;;31.45;26.63;;;10.60;99.90;;;;;;4911178;29;20220;-81
2023/03/20 02:56:48;;;;;;;32.15;25.27;;;10.60;99.90;;;;;;4921868;29;20252;-83
2023/03/20 02:59:42;;;;;;;37.53;29.42;;;10.50;99.90;;;;;;4918355;29;20636;-81
2023/03/20 03:02:20;;;;;;;31.05;25.50;;;10.50;99.90;;;;;;4911529;29;20208;-82
2023/03/20 03:04:55;;;;;;;33.30;25.38;;;10.60;99.90;;;;;;4910078;29;20232;-82
2023/03/20 03:07:27;;;;;;;31.88;25.45;;;10.40;99.90;;;;;;4923913;29;20219;-81
2023/03/20 03:10:01;;;;;;;35.78;25.83;;;10.60;99.90;;;;;;4918939;29;20501;-83
2023/03/20 03:12:34;;;;;;;32.85;25.70;;;10.80;99.90;;;;;;4921469;29;20205;-81
2023/03/20 03:15:06;;;;;;;31.75;24.35;;;10.90;99.90;;;;;;4905432;29;20220;-81
2023/03/20 03:17:36;;;;;;;29.42;24.60;;;10.70;99.90;;;;;;4917856;29;20209;-83
2023/03/20 03:20:31;;;;;;;34.20;26.08;;;10.70;99.90;;;;;;4920343;29;20234;-81
2023/03/20 03:23:00;;;;;;;30.15;22.92;;;10.70;99.90;;;;;;4905617;29;20209;-81
2023/03/20 03:25:39;;;;;;;29.60;23.00;;;10.70;99.90;;;;;;4915812;29;20204;-81
2023/03/20 03:28:36;;;;;;;28.98;24.05;;;10.70;99.90;;;;;;4915163;29;20425;-81
2023/03/20 03:31:06;;;;;;;32.45;23.75;;;10.70;99.90;;;;;;4921937;29;20227;-82
2023/03/20 03:33:38;;;;;;;29.95;22.23;;;10.80;99.90;;;;;;4936620;29;20222;-81
2023/03/20 03:36:26;;;;;;;28.50;23.15;;;10.90;99.90;;;;;;4936816;29;20196;-83
2023/03/20 03:39:16;;;;;;;28.25;22.55;;;10.90;99.90;;;;;;4930656;29;20190;-83
2023/03/20 03:41:50;;;;;;;22.30;19.52;;;11.00;99.90;;;;;;4924274;29;20205;-83
2023/03/20 03:44:36;;;;;;;24.80;22.05;;;10.80;99.90;;;;;;4916034;29;20592;-82
2023/03/20 03:47:18;;;;;;;29.10;21.25;;;10.90;99.90;;;;;;4917966;29;20249;-81
2023/03/20 03:49:57;;;;;;;23.98;19.98;;;11.00;99.90;;;;;;4919724;29;20438;-81
2023/03/20 03:52:26;;;;;;;25.98;21.52;;;11.00;99.90;;;;;;4921744;29;20220;-80
2023/03/20 03:55:05;;;;;;;26.70;20.25;;;11.00;99.90;;;;;;4920349;29;20430;-80
2023/03/20 03:57:49;;;;;;;24.52;21.77;;;11.10;99.90;;;;;;4915451;29;20257;-81
2023/03/20 04:00:20;;;;;;;25.30;21.88;;;10.90;99.90;;;;;;4919532;29;20390;-83
2023/03/20 04:02:52;;;;;;;28.38;23.60;;;10.90;99.90;;;;;;4919229;29;20273;-81
2023/03/20 04:05:23;;;;;;;27.98;21.90;;;11.00;99.90;;;;;;4917864;29;20229;-81
2023/03/20 04:07:54;;;;;;;28.88;20.42;;;11.00;99.90;;;;;;4922311;29;20201;-80
2023/03/20 04:10:21;;;;;;;21.35;19.08;;;11.00;99.90;;;;;;4918405;29;20222;-81
2023/03/20 04:12:51;;;;;;;26.90;21.75;;;10.90;99.90;;;;;;4914804;29;20215;-82
2023/03/20 04:15:20;;;;;;;25.38;21.70;;;10.90;99.90;;;;;;4918392;29;20221;-80
2023/03/20 04:17:47;;;;;;;24.05;21.25;;;10.70;99.90;;;;;;4910111;29;20200;-81
2023/03/20 04:20:15;;;;;;;27.17;21.92;;;10.50;99.90;;;;;;4921499;29;20260;-81
2023/03/20 04:22:42;;;;;;;26.27;21.50;;;10.40;99.90;;;;;;4913115;29;20209;-81
2023/03/20 04:25:19;;;;;;;24.30;21.70;;;10.50;99.90;;;;;;4912038;29;20237;-81
2023/03/20 04:27:46;;;;;;;28.80;24.00;;;10.50;99.90;;;;;;4913471;29;20217;-80
2023/03/20 04:30:13;;;;;;;29.95;25.48;;;10.60;99.90;;;;;;4917845;29;20650;-79
2023/03/20 04:32:40;;;;;;;29.02;23.48;;;10.70;99.90;;;;;;4916999;29;20231;-81
2023/03/20 04:35:08;;;;;;;25.95;22.48;;;10.50;99.90;;;;;;4920783;29;20281;-82
2023/03/20 04:37:35;;;;;;;31.20;24.92;;;10.60;99.90;;;;;;4912960;29;20256;-81
2023/03/20 04:40:04;;;;;;;31.70;23.25;;;10.70;99.90;;;;;;4922060;29;20276;-81
2023/03/20 04:42:34;;;;;;;27.42;23.45;;;10.50;99.90;;;;;;4919701;29;20229;-82
2023/03/20 04:45:06;;;;;;;30.38;23.40;;;10.70;99.90;;;;;;4916079;29;20240;-81
2023/03/20 04:47:34;;;;;;;25.08;22.35;;;10.80;99.90;;;;;;4919532;29;20211;-82
2023/03/20 04:50:01;;;;;;;28.45;22.23;;;10.80;99.90;;;;;;4916519;29;20352;-83
2023/03/20 04:52:28;;;;;;;28.92;21.50;;;10.70;99.90;;;;;;4920385;29;20216;-81
2023/03/20 04:54:55;;;;;;;28.40;20.65;;;10.70;99.90;;;;;;4915685;29;20210;-81
2023/03/20 04:57:22;;;;;;;28.80;23.13;;;10.70;99.90;;;;;;4916124;29;20226;-83
2023/03/20 04:59:49;;;;;;;25.92;21.98;;;10.70;99.90;;;;;;4918029;29;20411;-83
2023/03/20 05:02:17;;;;;;;27.55;22.10;;;10.80;99.90;;;;;;4925531;29;20204;-83
2023/03/20 05:04:45;;;;;;;23.30;19.75;;;10.80;99.90;;;;;;4916589;29;20664;-83
2023/03/20 05:07:12;;;;;;;27.23;22.88;;;10.60;99.90;;;;;;4921000;29;20212;-82
2023/03/20 05:09:39;;;;;;;25.63;21.42;;;10.50;99.90;;;;;;4919884;29;20955;-82
2023/03/20 05:12:07;;;;;;;27.30;21.25;;;10.50;99.90;;;;;;4903531;29;20217;-83
2023/03/20 05:14:34;;;;;;;26.73;20.50;;;10.60;99.90;;;;;;4924377;29;20210;-82
2023/03/20 05:17:03;;;;;;;21.38;18.92;;;10.70;99.90;;;;;;4919812;29;20763;-82
2023/03/20 05:19:30;;;;;;;24.40;20.67;;;10.70;99.90;;;;;;4922004;29;20212;-82
2023/03/20 05:21:57;;;;;;;24.00;17.85;;;10.70;99.90;;;;;;4918205;29;20601;-81
2023/03/20 05:24:24;;;;;;;26.67;19.85;;;10.80;99.90;;;;;;4913860;29;20240;-81
2023/03/20 05:26:52;;;;;;;28.95;20.95;;;11.00;99.90;;;;;;4923467;29;20260;-82
2023/03/20 05:29:19;;;;;;;26.20;21.08;;;11.00;99.90;;;;;;4911670;29;20214;-82
2023/03/20 05:31:47;;;;;;;23.05;19.23;;;11.20;99.90;;;;;;4915535;29;20604;-82
2023/03/20 05:34:15;;;;;;;22.40;19.65;;;11.00;99.90;;;;;;4925029;29;20206;-83
2023/03/20 05:36:42;;;;;;;27.55;20.38;;;11.10;99.90;;;;;;4914904;29;20285;-82
2023/03/20 05:39:11;;;;;;;26.23;21.45;;;11.20;99.90;;;;;;4920608;29;20271;-81
2023/03/20 05:41:38;;;;;;;25.98;20.63;;;11.30;99.90;;;;;;4918947;29;20208;-81
2023/03/20 05:44:05;;;;;;;25.70;20.77;;;11.20;99.90;;;;;;4922998;29;20532;-82
2023/03/20 05:46:31;;;;;;;30.65;21.10;;;11.20;99.90;;;;;;4916286;29;20463;-81
2023/03/20 05:49:02;;;;;;;23.50;19.52;;;11.20;99.90;;;;;;4914127;29;20224;-81
2023/03/20 05:51:30;;;;;;;20.67;18.02;;;11.40;99.90;;;;;;4909354;29;20228;-81
2023/03/20 05:53:57;;;;;;;21.17;16.52;;;11.30;99.90;;;;;;4913728;29;20390;-81
2023/03/20 05:56:24;;;;;;;19.98;15.25;;;11.40;99.90;;;;;;4920670;29;20209;-82
2023/03/20 05:58:51;;;;;;;21.50;15.20;;;11.60;99.90;;;;;;4924335;29;20248;-81
2023/03/20 06:01:20;;;;;;;23.75;17.35;;;11.70;99.90;;;;;;4917935;29;20281;-80
2023/03/20 06:03:48;;;;;;;17.65;15.75;;;11.70;99.90;;;;;;4916440;29;20203;-81
2023/03/20 06:06:16;;;;;;;20.35;16.58;;;11.60;99.90;;;;;;4919875;29;20377;-81
2023/03/20 06:08:46;;;;;;;18.40;15.27;;;11.60;99.90;;;;;;4915721;29;20285;-82
2023/03/20 06:11:14;;;;;;;16.73;15.02;;;11.60;99.90;;;;;;4915461;29;20224;-82
2023/03/20 06:13:43;;;;;;;18.08;15.07;;;11.80;99.90;;;;;;4921364;29;20212;-81
2023/03/20 06:16:10;;;;;;;16.65;14.93;;;12.00;99.90;;;;;;4920023;29;20554;-80
2023/03/20 06:18:38;;;;;;;17.13;14.55;;;12.00;99.90;;;;;;4917810;29;20636;-80
2023/03/20 06:21:05;;;;;;;17.55;15.10;;;12.10;99.90;;;;;;4924761;29;20205;-82
2023/03/20 06:23:32;;;;;;;17.60;13.57;;;12.30;99.90;;;;;;4922230;29;20233;-80
2023/03/20 06:25:59;;;;;;;20.80;15.80;;;12.10;99.90;;;;;;4906837;29;20231;-80
2023/03/20 06:28:26;;;;;;;17.38;15.65;;;12.10;99.90;;;;;;4917750;29;20526;-80
2023/03/20 06:30:54;;;;;;;22.33;16.05;;;12.30;99.90;;;;;;4918893;29;20213;-79
2023/03/20 06:33:21;;;;;;;18.25;14.70;;;12.30;99.90;;;;;;4919122;29;20215;-79
2023/03/20 06:35:49;;;;;;;18.90;16.90;;;12.30;99.90;;;;;;4916976;29;20214;-78
2023/03/20 06:38:16;;;;;;;17.63;15.80;;;12.50;99.90;;;;;;4912698;29;20210;-80
2023/03/20 06:40:44;;;;;;;20.17;17.98;;;12.60;99.90;;;;;;4914031;29;20204;-81
2023/03/20 06:43:14;;;;;;;20.02;16.27;;;12.70;99.90;;;;;;4912230;29;20223;-78
2023/03/20 06:45:40;;;;;;;19.00;16.95;;;12.70;99.90;;;;;;4919389;29;20289;-81
2023/03/20 06:48:08;;;;;;;18.13;16.27;;;12.50;99.90;;;;;;4912659;29;20212;-80
2023/03/20 06:50:36;;;;;;;23.27;15.73;;;12.40;99.90;;;;;;4920101;29;20320;-81
2023/03/20 06:53:03;;;;;;;18.88;15.02;;;12.20;99.90;;;;;;4917528;29;20220;-79
2023/03/20 06:55:30;;;;;;;19.10;16.83;;;12.60;99.90;;;;;;4912496;29;20223;-80
2023/03/20 06:57:57;;;;;;;16.70;14.93;;;12.30;99.90;;;;;;4918364;29;20203;-81
2023/03/20 07:00:24;;;;;;;19.30;15.75;;;12.20;99.90;;;;;;4923441;29;20237;-80
2023/03/20 07:02:52;;;;;;;18.65;16.25;;;12.40;99.90;;;;;;4909672;29;20207;-79
2023/03/20 07:05:19;;;;;;;18.58;16.63;;;12.30;99.90;;;;;;4921471;29;20253;-79
2023/03/20 07:07:46;;;;;;;17.55;15.05;;;12.30;99.90;;;;;;4921806;29;20434;-80
2023/03/20 07:10:13;;;;;;;18.15;16.13;;;12.30;99.90;;;;;;4919732;29;20715;-80
2023/03/20 07:12:40;;;;;;;19.60;15.95;;;12.40;99.90;;;;;;4922950;29;20246;-79
2023/03/20 07:15:07;;;;;;;23.48;17.60;;;12.40;99.90;;;;;;4911465;29;20504;-80
2023/03/20 07:17:34;;;;;;;17.52;14.90;;;12.30;99.90;;;;;;4919192;29;20215;-80
2023/03/20 07:20:03;;;;;;;28.65;20.80;;;12.50;99.90;;;;;;4922079;29;20633;-81
2023/03/20 07:22:30;;;;;;;21.23;16.77;;;12.30;99.90;;;;;;4912940;29;20215;-80
2023/03/20 07:24:57;;;;;;;29.30;18.73;;;12.30;99.90;;;;;;4909859;29;20263;-81
2023/03/20 07:27:25;;;;;;;21.10;17.70;;;12.50;99.90;;;;;;4911398;29;20347;-81
2023/03/20 07:29:51;;;;;;;22.00;16.67;;;12.40;99.90;;;;;;4918434;29;20204;-81
2023/03/20 07:32:19;;;;;;;21.38;15.80;;;12.60;99.90;;;;;;4915740;29;20228;-79
2023/03/20 07:34:47;;;;;;;21.15;18.83;;;12.70;99.90;;;;;;4918733;29;20215;-81
2023/03/20 07:37:14;;;;;;;22.92;18.60;;;12.80;99.90;;;;;;4920497;29;20231;-80
2023/03/20 07:39:41;;;;;;;20.80;18.13;;;13.00;99.90;;;;;;4918565;29;20231;-80
2023/03/20 07:42:08;;;;;;;22.88;18.77;;;13.10;99.90;;;;;;4916923;29;20212;-79
2023/03/20 07:44:35;;;;;;;24.85;18.98;;;13.30;99.90;;;;;;4921000;29;20236;-82
2023/03/20 07:47:02;;;;;;;23.13;17.52;;;13.50;99.90;;;;;;4915043;29;20244;-80
2023/03/20 07:49:29;;;;;;;20.48;17.52;;;13.50;99.90;;;;;;4917174;29;20227;-82
2023/03/20 07:51:56;;;;;;;20.25;16.80;;;13.50;99.90;;;;;;4920362;29;20220;-81
2023/03/20 07:54:23;;;;;;;24.40;18.85;;;13.80;99.90;;;;;;4920183;29;20216;-81
2023/03/20 07:56:50;;;;;;;23.90;16.92;;;13.50;99.90;;;;;;4916405;29;20211;-81
2023/03/20 07:59:17;;;;;;;22.58;18.23;;;13.40;99.90;;;;;;4920867;29;20381;-81
2023/03/20 08:01:44;;;;;;;20.30;18.10;;;13.20;99.90;;;;;;4915127;29;20213;-80
2023/03/20 08:04:12;;;;;;;21.63;17.38;;;13.10;99.90;;;;;;4911691;29;20194;-80
2023/03/20 08:06:38;;;;;;;29.02;20.98;;;13.10;99.90;;;;;;4937727;29;20204;-81
2023/03/20 08:09:06;;;;;;;22.38;18.30;;;13.30;99.90;;;;;;4929946;29;20191;-80
2023/03/20 08:11:33;;;;;;;23.02;18.52;;;13.20;99.90;;;;;;4935728;29;20248;-82
2023/03/20 08:14:00;;;;;;;21.90;17.92;;;13.20;99.90;;;;;;4920201;29;20304;-81
2023/03/20 08:16:27;;;;;;;23.02;19.10;;;13.20;99.90;;;;;;4909026;29;20219;-81
2023/03/20 08:18:59;;;;;;;25.48;18.88;;;13.30;99.90;;;;;;4915487;29;20538;-80
2023/03/20 08:21:28;;;;;;;23.77;18.88;;;13.20;99.90;;;;;;4917763;29;20259;-80
2023/03/20 08:23:55;;;;;;;23.02;19.08;;;13.10;99.90;;;;;;4916761;29;20209;-80
2023/03/20 08:26:22;;;;;;;24.38;21.83;;;13.10;99.90;;;;;;4912522;29;20239;-79
2023/03/20 08:28:50;;;;;;;26.30;18.05;;;13.20;99.90;;;;;;4917977;29;20286;-80
2023/03/20 08:31:18;;;;;;;22.05;18.05;;;13.20;99.90;;;;;;4914471;29;20208;-81
2023/03/20 08:33:45;;;;;;;21.73;19.20;;;13.10;99.90;;;;;;4914200;29;20556;-79
2023/03/20 08:36:19;;;;;;;21.17;17.88;;;13.10;99.90;;;;;;4922786;29;20212;-80
2023/03/20 08:38:48;;;;;;;24.58;18.63;;;13.10;99.90;;;;;;4918729;29;20501;-79
2023/03/20 08:41:16;;;;;;;23.33;17.55;;;12.80;99.90;;;;;;4921393;29;20227;-80
2023/03/20 08:43:43;;;;;;;22.85;17.70;;;12.80;99.90;;;;;;4924047;29;20213;-80
2023/03/20 08:46:10;;;;;;;22.30;18.70;;;12.90;99.90;;;;;;4915516;29;20239;-79
2023/03/20 08:48:37;;;;;;;25.40;19.92;;;13.00;99.90;;;;;;4922819;29;20220;-80
2023/03/20 08:51:05;;;;;;;20.65;18.42;;;13.00;99.90;;;;;;4920287;29;20216;-81
2023/03/20 08:53:32;;;;;;;24.98;20.35;;;12.90;99.90;;;;;;4922496;29;20260;-81
2023/03/20 08:55:59;;;;;;;27.20;21.20;;;12.70;99.90;;;;;;4908455;29;20666;-79
2023/03/20 08:58:26;;;;;;;26.80;20.17;;;12.80;99.90;;;;;;4914378;29;20204;-80
2023/03/20 09:00:53;;;;;;;32.35;20.70;;;12.80;99.90;;;;;;4913358;29;20209;-80
2023/03/20 09:03:20;;;;;;;20.98;18.10;;;13.00;99.90;;;;;;4921428;29;20218;-83
2023/03/20 09:05:50;;;;;;;21.70;18.55;;;13.00;99.90;;;;;;4907536;29;20233;-80
2023/03/20 09:08:17;;;;;;;21.75;18.00;;;13.10;99.90;;;;;;4923477;29;20212;-81
2023/03/20 09:10:45;;;;;;;25.13;19.55;;;13.10;99.90;;;;;;4924137;29;20211;-79
2023/03/20 09:13:12;;;;;;;24.13;18.50;;;13.30;99.90;;;;;;4914114;29;20799;-80
2023/03/20 09:15:53;;;;;;;26.08;20.25;;;13.50;99.90;;;;;;4923701;29;20216;-80
2023/03/20 09:18:21;;;;;;;24.10;19.10;;;13.60;99.90;;;;;;4923647;29;20247;-81
2023/03/20 09:20:48;;;;;;;24.40;19.92;;;13.50;99.90;;;;;;4916808;29;20212;-81
2023/03/20 09:23:17;;;;;;;20.33;18.02;;;13.80;99.90;;;;;;4919921;29;20221;-80
2023/03/20 09:25:43;;;;;;;27.20;19.10;;;14.00;99.90;;;;;;4916244;29;20233;-79
2023/03/20 09:28:10;;;;;;;21.50;18.27;;;14.00;99.90;;;;;;4923268;29;20216;-80
2023/03/20 09:30:38;;;;;;;22.85;18.20;;;14.40;99.90;;;;;;4914973;29;20205;-82
2023/03/20 09:33:05;;;;;;;17.10;15.07;;;14.70;99.90;;;;;;4919142;29;20244;-80
2023/03/20 09:35:32;;;;;;;16.63;14.40;;;14.90;99.90;;;;;;4919828;29;20248;-79
2023/03/20 09:38:00;;;;;;;17.17;15.33;;;14.60;99.90;;;;;;4919093;29;20444;-82
2023/03/20 09:40:35;;;;;;;20.70;15.50;;;14.60;99.90;;;;;;4915111;29;20454;-79
2023/03/20 09:43:31;;;;;;;17.17;15.37;;;14.50;99.90;;;;;;4910042;29;20208;-80
2023/03/20 09:46:22;;;;;;;13.50;11.85;;;14.50;99.90;;;;;;4915210;29;20482;-80
2023/03/20 09:49:16;;;;;;;15.73;12.27;;;14.80;99.90;;;;;;4922021;29;20208;-80
2023/03/20 09:51:59;;;;;;;17.30;14.33;;;15.10;99.90;;;;;;4928636;29;20439;-80
2023/03/20 09:54:38;;;;;;;20.00;16.07;;;15.30;99.90;;;;;;4927104;29;20455;-80
2023/03/20 09:57:25;;;;;;;15.43;12.80;;;15.60;99.90;;;;;;4921627;29;20443;-80
2023/03/20 10:00:06;;;;;;;16.10;13.53;;;15.60;99.90;;;;;;4921427;29;20499;-80
2023/03/20 10:02:53;;;;;;;16.40;13.03;;;15.60;99.90;;;;;;4904626;29;20454;-79
2023/03/20 10:05:27;;;;;;;13.27;11.10;;;15.70;99.90;;;;;;4923308;29;20454;-81
2023/03/20 10:07:56;;;;;;;12.53;10.77;;;16.00;99.90;;;;;;4915068;29;20421;-79
2023/03/20 10:10:49;;;;;;;10.53;9.50;;;15.60;99.90;;;;;;4918091;29;20652;-81
2023/03/20 10:13:51;;;;;;;15.20;10.30;;;15.70;99.90;;;;;;4912442;29;20426;-80
2023/03/20 10:16:43;;;;;;;10.87;9.77;;;16.00;99.90;;;;;;4913425;29;20462;-81
2023/03/20 10:19:15;;;;;;;14.20;11.60;;;16.10;99.90;;;;;;4915736;29;20434;-81
2023/03/20 10:21:44;;;;;;;15.70;12.13;;;16.50;99.90;;;;;;4914277;29;20414;-80
2023/03/20 10:24:27;;;;;;;13.10;10.60;;;16.60;99.90;;;;;;4920504;29;20430;-80
2023/03/20 10:27:00;;;;;;;12.67;11.47;;;16.70;99.90;;;;;;4921747;29;20483;-79
2023/03/20 10:29:53;;;;;;;15.37;10.63;;;16.70;99.90;;;;;;4920243;29;20462;-80
2023/03/20 10:32:40;;;;;;;11.87;10.23;;;16.70;99.90;;;;;;4911871;29;20451;-80
2023/03/20 10:35:44;;;;;;;10.33;9.33;;;16.70;99.90;;;;;;4914871;29;20453;-80
2023/03/20 10:38:24;;;;;;;12.60;11.43;;;17.10;99.90;;;;;;4912805;29;20512;-81
2023/03/20 10:40:53;;;;;;;10.30;9.20;;;17.10;99.90;;;;;;4920855;29;20699;-81
2023/03/20 10:43:25;;;;;;;15.83;9.00;;;17.30;99.90;;;;;;4924169;29;20462;-81
2023/03/20 10:46:04;;;;;;;13.53;8.87;;;17.20;99.90;;;;;;4913994;29;20685;-80
2023/03/20 10:48:59;;;;;;;9.93;8.80;;;17.40;99.90;;;;;;4905338;29;20490;-80
2023/03/20 10:51:40;;;;;;;8.90;7.90;;;17.50;99.90;;;;;;4910988;29;20451;-80
2023/03/20 10:54:36;;;;;;;11.80;10.00;;;17.70;99.90;;;;;;4915475;29;20431;-80
2023/03/20 10:57:05;;;;;;;7.83;7.03;;;17.60;99.90;;;;;;4917620;29;20493;-81
2023/03/20 10:59:39;;;;;;;10.60;9.57;;;17.60;99.90;;;;;;4921565;29;20444;-80
2023/03/20 11:02:13;;;;;;;9.20;8.30;;;17.90;99.90;;;;;;4910011;29;20475;-80
2023/03/20 11:04:41;;;;;;;7.97;6.63;;;18.10;99.90;;;;;;4922688;29;20431;-81
2023/03/20 11:07:11;;;;;;;8.63;7.13;;;18.00;99.90;;;;;;4911783;29;20454;-80
2023/03/20 11:09:38;;;;;;;11.20;8.23;;;17.80;99.90;;;;;;4917264;29;20443;-80
2023/03/20 11:12:14;;;;;;;12.17;10.70;;;17.80;99.90;;;;;;4912435;29;20426;-81
2023/03/20 11:14:40;;;;;;;17.20;8.30;;;17.80;99.90;;;;;;4911080;29;20527;-80
2023/03/20 11:17:09;;;;;;;11.93;6.50;;;17.60;99.90;;;;;;4914106;29;20456;-79
2023/03/20 11:19:39;;;;;;;7.60;6.40;;;17.80;99.90;;;;;;4921694;29;20825;-82
2023/03/20 11:22:21;;;;;;;21.43;10.03;;;18.30;99.90;;;;;;4919395;29;20426;-81
2023/03/20 11:24:54;;;;;;;7.37;6.37;;;18.70;99.90;;;;;;4921137;29;20452;-80
2023/03/20 11:27:27;;;;;;;8.87;7.10;;;19.00;99.90;;;;;;4913236;29;20491;-82
2023/03/20 11:29:56;;;;;;;9.80;8.80;;;18.70;99.90;;;;;;4914455;29;20487;-81
2023/03/20 11:32:38;;;;;;;8.07;7.30;;;18.40;99.90;;;;;;4921555;29;20418;-82
2023/03/20 11:35:25;;;;;;;7.73;7.07;;;17.80;99.90;;;;;;4912529;29;20447;-80
2023/03/20 11:37:55;;;;;;;9.17;8.37;;;17.60;99.90;;;;;;4919852;29;20423;-79
2023/03/20 11:40:30;;;;;;;10.20;7.50;;;17.80;99.90;;;;;;4914167;29;20458;-81
2023/03/20 11:43:00;;;;;;;11.13;8.30;;;17.80;99.90;;;;;;4910934;29;20775;-80
2023/03/20 11:45:34;;;;;;;10.53;8.53;;;17.70;99.90;;;;;;4910238;29;20621;-80
2023/03/20 11:48:03;;;;;;;9.93;9.00;;;17.70;99.90;;;;;;4917848;29;20418;-79
2023/03/20 11:50:33;;;;;;;11.00;9.87;;;17.70;99.90;;;;;;4918571;29;20692;-80
2023/03/20 11:53:16;;;;;;;16.00;10.50;;;17.70;99.90;;;;;;4918171;29;20443;-80
2023/03/20 11:55:56;;;;;;;12.17;10.97;;;18.20;99.90;;;;;;4911960;29;20613;-81
2023/03/20 11:58:24;;;;;;;18.43;11.73;;;18.50;99.90;;;;;;4920730;29;20473;-81
2023/03/20 12:00:53;;;;;;;13.67;12.33;;;18.40;99.90;;;;;;4916231;29;20458;-81
2023/03/20 12:03:54;;;;;;;14.70;13.37;;;18.30;99.90;;;;;;4918277;29;20769;-81
2023/03/20 12:06:24;;;;;;;13.83;10.97;;;18.60;99.90;;;;;;4914594;29;20507;-80
2023/03/20 12:09:01;;;;;;;13.23;11.80;;;19.00;99.90;;;;;;4918985;29;20550;-80
2023/03/20 12:11:51;;;;;;;12.30;11.00;;;19.30;99.90;;;;;;4915141;29;20414;-81
2023/03/20 12:14:44;;;;;;;11.27;10.30;;;19.30;99.90;;;;;;4916754;29;20410;-79
2023/03/20 12:17:56;;;;;;;11.30;10.30;;;19.20;99.90;;;;;;4916364;29;20531;-80
2023/03/20 12:20:26;;;;;;;17.80;14.77;;;19.00;99.90;;;;;;4911634;29;20658;-79
2023/03/20 12:23:08;;;;;;;12.10;11.03;;;19.10;99.90;;;;;;4904704;29;20422;-82
2023/03/20 12:26:07;;;;;;;11.67;10.70;;;19.30;99.90;;;;;;4909215;29;20820;-80
2023/03/20 12:28:51;;;;;;;12.60;11.47;;;18.80;99.90;;;;;;4872460;29;20751;-80
2023/03/20 12:31:44;;;;;;;16.00;11.63;;;18.20;99.90;;;;;;4912871;29;20410;-79
2023/03/20 12:34:31;;;;;;;13.30;12.10;;;18.00;99.90;;;;;;4907498;29;20443;-80
2023/03/20 12:36:59;;;;;;;13.43;12.03;;;18.20;99.90;;;;;;4912340;29;20454;-80
2023/03/20 12:39:41;;;;;;;12.27;10.97;;;18.30;99.90;;;;;;4910884;29;20422;-79
2023/03/20 12:42:36;;;;;;;12.93;11.70;;;18.20;99.90;;;;;;4914785;29;20425;-82
2023/03/20 12:45:05;;;;;;;10.80;9.80;;;18.30;99.90;;;;;;4924696;29;20410;-82
2023/03/20 12:47:55;;;;;;;10.97;9.97;;;18.60;99.90;;;;;;4934090;29;20464;-80
2023/03/20 12:50:32;;;;;;;12.13;9.50;;;18.70;99.90;;;;;;4925803;29;20697;-80
2023/03/20 12:53:20;;;;;;;10.53;9.27;;;18.60;99.90;;;;;;4920052;29;20719;-79
2023/03/20 12:56:04;;;;;;;9.77;8.97;;;18.30;99.90;;;;;;4915929;29;20447;-79
2023/03/20 12:58:42;;;;;;;10.43;9.33;;;18.40;99.90;;;;;;4910753;29;20435;-78